Garden City, IA

11:08 AM CDT on May 22, 2015 (GMT -0500)
Prairie Ridge | | Change Station
CLOSE
Current Station
Personal Weather Station
Location: Story City, IA
Elevation: 1010 ft
Nearby Weather Stations

Elev 1010 ft 42.19 °N, 93.58 °W | Updated 1 minute ago

Clear
Clear
84.7 °F
Feels Like 82 °F
N
4.3
Wind Variable Wind from NW

Today
High -- | Low -- °F
--% Chance of Precip.
Yesterday
High -- | Low -- °F
Precip. -- in
5:46 AM 8:34 PM
Waxing Crescent, 22% visible
Pressure 30.22 in
Visibility 10.0 miles
Clouds Clear
Heat Index 82 °F
Dew Point 39 °F
Humidity 20%
Rainfall 0.00 in
Snow Depth Not available.
UV 9 out of 12
Pollen 9.50 out of 12
Air Quality Not available.
Flu Activity Sporadic
METAR KIFA 221555Z AUTO 00000KT 10SM CLR 21/00 A3022 RMK AO2 T02070001

More Conditions Fewer Conditions

Pressure 30.22 in
Visibility 10.0 miles
Clouds Clear
Heat Index 82 °F
Dew Point 39 °F
Humidity 20%
Rainfall 0.00 in
Snow Depth Not available.
UV 9 out of 12
Pollen 9.50 out of 12
Air Quality Not available.
Flu Activity Sporadic
METAR KIFA 221555Z AUTO 00000KT 10SM CLR 21/00 A3022 RMK AO2 T02070001

More Conditions Fewer Conditions

10-Day Weather Forecast

Almanac

Astronomy

May. 22, 2015 Rise Set
Actual Time
Civil Twilight
Nautical Twilight
Astronomical Twilight
Moon
Length of Visible Light
Length of Day
Tomorrow will be .
, % of the Moon is Illuminated

Today's Extremes

State Highs State Lows

Community

WunderPhotos

Upload Photos

1,823,251 photos uploaded!

WunderBlogs® & News

Nearby

Air Quality

  Air Quality AQ Index Pollutant
Not available.

Snow Depth

Station Depth Elevation

Earthquake Activity

City Distance Mag. Time & Date
Minimum magnitude displayed is 2.5.

Coastal Water Temperatures

Place Temperature

Stations

Nearby Weather Stations

Station Location Temp. Windchill Dew Point Humidity Wind Precip. Elev Updated Type